sensor_id;sensor_type;location;lat;lon;timestamp;P1;durP1;ratioP1;P2;durP2;ratioP2
78167;SDS011;67410;42.698;23.378;2023-02-18T00:00:14;129.02;;;51.00;;
78167;SDS011;67410;42.698;23.378;2023-02-18T00:02:43;121.47;;;49.40;;
78167;SDS011;67410;42.698;23.378;2023-02-18T00:05:10;131.27;;;50.90;;
78167;SDS011;67410;42.698;23.378;2023-02-18T00:07:38;119.68;;;52.42;;
78167;SDS011;67410;42.698;23.378;2023-02-18T00:10:09;121.97;;;51.13;;
78167;SDS011;67410;42.698;23.378;2023-02-18T00:12:37;129.45;;;52.88;;
78167;SDS011;67410;42.698;23.378;2023-02-18T00:15:04;132.52;;;53.63;;
78167;SDS011;67410;42.698;23.378;2023-02-18T00:17:32;131.60;;;56.80;;
78167;SDS011;67410;42.698;23.378;2023-02-18T00:19:58;119.20;;;49.90;;
78167;SDS011;67410;42.698;23.378;2023-02-18T00:22:24;141.02;;;53.28;;
78167;SDS011;67410;42.698;23.378;2023-02-18T00:24:51;143.57;;;58.97;;
78167;SDS011;67410;42.698;23.378;2023-02-18T00:27:17;140.70;;;57.63;;
78167;SDS011;67410;42.698;23.378;2023-02-18T00:29:43;160.43;;;65.82;;
78167;SDS011;67410;42.698;23.378;2023-02-18T00:32:09;153.82;;;62.65;;
78167;SDS011;67410;42.698;23.378;2023-02-18T00:34:36;154.60;;;61.67;;
78167;SDS011;67410;42.698;23.378;2023-02-18T00:37:02;155.40;;;64.13;;
78167;SDS011;67410;42.698;23.378;2023-02-18T00:39:29;279.17;;;97.72;;
78167;SDS011;67410;42.698;23.378;2023-02-18T00:41:55;185.27;;;76.93;;
78167;SDS011;67410;42.698;23.378;2023-02-18T00:44:21;178.27;;;74.78;;
78167;SDS011;67410;42.698;23.378;2023-02-18T00:46:47;184.98;;;74.75;;
78167;SDS011;67410;42.698;23.378;2023-02-18T00:49:14;199.13;;;81.10;;
78167;SDS011;67410;42.698;23.378;2023-02-18T00:51:41;190.80;;;75.70;;
78167;SDS011;67410;42.698;23.378;2023-02-18T00:54:07;197.60;;;78.07;;
78167;SDS011;67410;42.698;23.378;2023-02-18T00:56:33;168.75;;;72.20;;
78167;SDS011;67410;42.698;23.378;2023-02-18T00:59:00;174.30;;;71.47;;
78167;SDS011;67410;42.698;23.378;2023-02-18T01:01:26;171.32;;;66.80;;
78167;SDS011;67410;42.698;23.378;2023-02-18T01:03:52;176.95;;;70.30;;
78167;SDS011;67410;42.698;23.378;2023-02-18T01:06:18;176.88;;;73.60;;
78167;SDS011;67410;42.698;23.378;2023-02-18T01:08:46;179.15;;;71.97;;
78167;SDS011;67410;42.698;23.378;2023-02-18T01:11:13;174.25;;;70.60;;
78167;SDS011;67410;42.698;23.378;2023-02-18T01:13:39;171.35;;;72.57;;
78167;SDS011;67410;42.698;23.378;2023-02-18T01:16:06;180.43;;;72.72;;
78167;SDS011;67410;42.698;23.378;2023-02-18T01:18:32;183.05;;;73.97;;
78167;SDS011;67410;42.698;23.378;2023-02-18T01:20:59;198.88;;;77.18;;
78167;SDS011;67410;42.698;23.378;2023-02-18T01:23:25;185.85;;;76.18;;
78167;SDS011;67410;42.698;23.378;2023-02-18T01:25:51;174.73;;;71.88;;
78167;SDS011;67410;42.698;23.378;2023-02-18T01:28:18;153.68;;;64.40;;
78167;SDS011;67410;42.698;23.378;2023-02-18T01:30:46;159.13;;;64.13;;
78167;SDS011;67410;42.698;23.378;2023-02-18T01:33:12;175.07;;;72.30;;
78167;SDS011;67410;42.698;23.378;2023-02-18T01:35:38;172.80;;;64.55;;
78167;SDS011;67410;42.698;23.378;2023-02-18T01:38:05;160.88;;;65.10;;
78167;SDS011;67410;42.698;23.378;2023-02-18T01:40:32;155.70;;;65.45;;
78167;SDS011;67410;42.698;23.378;2023-02-18T01:42:58;158.48;;;63.08;;
78167;SDS011;67410;42.698;23.378;2023-02-18T01:50:39;75.78;;;27.55;;
78167;SDS011;67410;42.698;23.378;2023-02-18T01:53:08;93.95;;;33.35;;
78167;SDS011;67410;42.698;23.378;2023-02-18T01:55:36;71.38;;;27.42;;
78167;SDS011;67410;42.698;23.378;2023-02-18T01:58:03;49.22;;;18.92;;
78167;SDS011;67410;42.698;23.378;2023-02-18T02:00:30;54.20;;;22.25;;
78167;SDS011;67410;42.698;23.378;2023-02-18T02:02:57;62.42;;;24.20;;
78167;SDS011;67410;42.698;23.378;2023-02-18T02:05:23;75.10;;;25.75;;
78167;SDS011;67410;42.698;23.378;2023-02-18T02:07:50;75.82;;;30.58;;
78167;SDS011;67410;42.698;23.378;2023-02-18T02:10:18;77.75;;;30.85;;
78167;SDS011;67410;42.698;23.378;2023-02-18T02:12:52;85.30;;;35.50;;
78167;SDS011;67410;42.698;23.378;2023-02-18T02:32:31;95.03;;;37.78;;
78167;SDS011;67410;42.698;23.378;2023-02-18T02:38:01;104.82;;;41.05;;
78167;SDS011;67410;42.698;23.378;2023-02-18T02:44:26;77.55;;;34.85;;
78167;SDS011;67410;42.698;23.378;2023-02-18T02:52:34;98.88;;;42.10;;
78167;SDS011;67410;42.698;23.378;2023-02-18T02:54:45;90.80;;;36.58;;
78167;SDS011;67410;42.698;23.378;2023-02-18T02:59:42;102.03;;;41.40;;
78167;SDS011;67410;42.698;23.378;2023-02-18T03:16:10;71.15;;;30.38;;
78167;SDS011;67410;42.698;23.378;2023-02-18T03:19:09;72.07;;;31.08;;
78167;SDS011;67410;42.698;23.378;2023-02-18T03:24:09;63.15;;;26.48;;
78167;SDS011;67410;42.698;23.378;2023-02-18T03:26:53;69.20;;;26.50;;
78167;SDS011;67410;42.698;23.378;2023-02-18T03:29:27;68.22;;;27.08;;
78167;SDS011;67410;42.698;23.378;2023-02-18T03:31:54;72.05;;;29.27;;
78167;SDS011;67410;42.698;23.378;2023-02-18T03:34:29;70.53;;;30.05;;
78167;SDS011;67410;42.698;23.378;2023-02-18T03:37:00;62.05;;;27.15;;
78167;SDS011;67410;42.698;23.378;2023-02-18T03:39:28;81.15;;;33.13;;
78167;SDS011;67410;42.698;23.378;2023-02-18T03:41:57;78.85;;;29.45;;
78167;SDS011;67410;42.698;23.378;2023-02-18T03:44:23;71.10;;;28.73;;
78167;SDS011;67410;42.698;23.378;2023-02-18T03:46:50;80.90;;;30.77;;
78167;SDS011;67410;42.698;23.378;2023-02-18T03:49:17;82.95;;;36.63;;
78167;SDS011;67410;42.698;23.378;2023-02-18T03:51:43;85.40;;;34.97;;
78167;SDS011;67410;42.698;23.378;2023-02-18T03:54:09;69.63;;;27.00;;
78167;SDS011;67410;42.698;23.378;2023-02-18T03:56:36;54.78;;;22.33;;
78167;SDS011;67410;42.698;23.378;2023-02-18T03:59:02;60.28;;;23.35;;
78167;SDS011;67410;42.698;23.378;2023-02-18T04:01:29;57.20;;;22.20;;
78167;SDS011;67410;42.698;23.378;2023-02-18T04:03:55;48.40;;;20.83;;
78167;SDS011;67410;42.698;23.378;2023-02-18T04:06:21;49.85;;;22.98;;
78167;SDS011;67410;42.698;23.378;2023-02-18T04:08:48;55.80;;;25.75;;
78167;SDS011;67410;42.698;23.378;2023-02-18T04:11:14;138.07;;;44.30;;
78167;SDS011;67410;42.698;23.378;2023-02-18T04:13:41;82.70;;;31.50;;
78167;SDS011;67410;42.698;23.378;2023-02-18T04:16:07;61.30;;;25.50;;
78167;SDS011;67410;42.698;23.378;2023-02-18T04:18:33;88.32;;;32.42;;
78167;SDS011;67410;42.698;23.378;2023-02-18T04:21:00;90.38;;;36.92;;
78167;SDS011;67410;42.698;23.378;2023-02-18T04:23:26;131.55;;;49.38;;
78167;SDS011;67410;42.698;23.378;2023-02-18T04:25:52;115.80;;;41.97;;
78167;SDS011;67410;42.698;23.378;2023-02-18T04:28:18;118.35;;;50.08;;
78167;SDS011;67410;42.698;23.378;2023-02-18T04:30:45;98.60;;;41.50;;
78167;SDS011;67410;42.698;23.378;2023-02-18T04:33:11;77.53;;;32.88;;
78167;SDS011;67410;42.698;23.378;2023-02-18T04:35:38;83.03;;;35.72;;
78167;SDS011;67410;42.698;23.378;2023-02-18T04:38:06;93.75;;;38.15;;
78167;SDS011;67410;42.698;23.378;2023-02-18T04:40:33;100.43;;;40.70;;
78167;SDS011;67410;42.698;23.378;2023-02-18T04:43:00;90.10;;;41.50;;
78167;SDS011;67410;42.698;23.378;2023-02-18T04:45:27;111.30;;;46.88;;
78167;SDS011;67410;42.698;23.378;2023-02-18T04:47:53;134.13;;;53.53;;
78167;SDS011;67410;42.698;23.378;2023-02-18T04:50:20;115.28;;;45.63;;
78167;SDS011;67410;42.698;23.378;2023-02-18T04:52:46;114.05;;;48.40;;
78167;SDS011;67410;42.698;23.378;2023-02-18T04:55:12;101.95;;;45.35;;
78167;SDS011;67410;42.698;23.378;2023-02-18T04:57:38;102.35;;;43.58;;
78167;SDS011;67410;42.698;23.378;2023-02-18T05:00:05;104.35;;;46.67;;
78167;SDS011;67410;42.698;23.378;2023-02-18T05:02:33;120.63;;;49.33;;
78167;SDS011;67410;42.698;23.378;2023-02-18T05:05:00;94.65;;;42.35;;
78167;SDS011;67410;42.698;23.378;2023-02-18T05:07:26;108.00;;;47.45;;
78167;SDS011;67410;42.698;23.378;2023-02-18T05:09:52;117.53;;;50.55;;
78167;SDS011;67410;42.698;23.378;2023-02-18T05:12:18;126.68;;;57.42;;
78167;SDS011;67410;42.698;23.378;2023-02-18T05:14:44;119.22;;;54.45;;
78167;SDS011;67410;42.698;23.378;2023-02-18T05:17:10;111.90;;;54.28;;
78167;SDS011;67410;42.698;23.378;2023-02-18T05:19:37;115.75;;;52.75;;
78167;SDS011;67410;42.698;23.378;2023-02-18T05:22:03;117.15;;;54.00;;
78167;SDS011;67410;42.698;23.378;2023-02-18T05:24:29;112.72;;;50.13;;
78167;SDS011;67410;42.698;23.378;2023-02-18T05:26:55;98.38;;;48.65;;
78167;SDS011;67410;42.698;23.378;2023-02-18T05:29:21;100.75;;;47.08;;
78167;SDS011;67410;42.698;23.378;2023-02-18T05:31:47;93.80;;;44.38;;
78167;SDS011;67410;42.698;23.378;2023-02-18T05:34:13;101.22;;;42.38;;
78167;SDS011;67410;42.698;23.378;2023-02-18T05:36:39;108.88;;;50.58;;
78167;SDS011;67410;42.698;23.378;2023-02-18T05:39:05;105.50;;;55.30;;
78167;SDS011;67410;42.698;23.378;2023-02-18T05:41:31;137.27;;;69.45;;
78167;SDS011;67410;42.698;23.378;2023-02-18T05:43:58;168.20;;;89.57;;
78167;SDS011;67410;42.698;23.378;2023-02-18T05:46:42;192.98;;;102.03;;
78167;SDS011;67410;42.698;23.378;2023-02-18T05:49:08;179.40;;;94.15;;
78167;SDS011;67410;42.698;23.378;2023-02-18T05:51:35;174.80;;;90.28;;
78167;SDS011;67410;42.698;23.378;2023-02-18T05:54:01;160.95;;;85.18;;
78167;SDS011;67410;42.698;23.378;2023-02-18T05:56:27;147.38;;;82.30;;
78167;SDS011;67410;42.698;23.378;2023-02-18T05:58:53;152.48;;;84.78;;
78167;SDS011;67410;42.698;23.378;2023-02-18T06:01:19;148.50;;;77.22;;
78167;SDS011;67410;42.698;23.378;2023-02-18T06:03:45;158.00;;;85.45;;
78167;SDS011;67410;42.698;23.378;2023-02-18T06:06:12;164.90;;;82.40;;
78167;SDS011;67410;42.698;23.378;2023-02-18T06:08:38;144.13;;;74.57;;
78167;SDS011;67410;42.698;23.378;2023-02-18T06:11:04;151.60;;;81.60;;
78167;SDS011;67410;42.698;23.378;2023-02-18T06:13:30;171.35;;;89.03;;
78167;SDS011;67410;42.698;23.378;2023-02-18T06:15:56;174.07;;;92.38;;
78167;SDS011;67410;42.698;23.378;2023-02-18T06:18:22;191.45;;;101.15;;
78167;SDS011;67410;42.698;23.378;2023-02-18T06:20:48;178.02;;;88.35;;
78167;SDS011;67410;42.698;23.378;2023-02-18T06:23:14;176.02;;;84.15;;
78167;SDS011;67410;42.698;23.378;2023-02-18T06:25:41;152.07;;;71.15;;
78167;SDS011;67410;42.698;23.378;2023-02-18T06:28:07;166.75;;;82.18;;
78167;SDS011;67410;42.698;23.378;2023-02-18T06:30:33;145.68;;;74.80;;
78167;SDS011;67410;42.698;23.378;2023-02-18T06:32:59;121.30;;;60.63;;
78167;SDS011;67410;42.698;23.378;2023-02-18T06:35:29;99.30;;;50.28;;
78167;SDS011;67410;42.698;23.378;2023-02-18T06:37:55;67.70;;;31.40;;
78167;SDS011;67410;42.698;23.378;2023-02-18T06:40:21;55.40;;;29.52;;
78167;SDS011;67410;42.698;23.378;2023-02-18T06:42:47;72.18;;;32.40;;
78167;SDS011;67410;42.698;23.378;2023-02-18T06:45:13;82.75;;;38.05;;
78167;SDS011;67410;42.698;23.378;2023-02-18T06:47:39;87.00;;;34.70;;
78167;SDS011;67410;42.698;23.378;2023-02-18T06:50:05;91.93;;;40.55;;
78167;SDS011;67410;42.698;23.378;2023-02-18T06:52:32;74.45;;;34.97;;
78167;SDS011;67410;42.698;23.378;2023-02-18T06:54:59;98.25;;;41.15;;
78167;SDS011;67410;42.698;23.378;2023-02-18T06:57:25;66.18;;;33.33;;
78167;SDS011;67410;42.698;23.378;2023-02-18T06:59:51;65.43;;;29.92;;
78167;SDS011;67410;42.698;23.378;2023-02-18T07:02:17;62.83;;;33.50;;
78167;SDS011;67410;42.698;23.378;2023-02-18T07:04:43;87.57;;;42.42;;
78167;SDS011;67410;42.698;23.378;2023-02-18T07:07:11;85.28;;;41.53;;
78167;SDS011;67410;42.698;23.378;2023-02-18T07:09:38;90.88;;;42.35;;
78167;SDS011;67410;42.698;23.378;2023-02-18T07:12:04;82.22;;;41.47;;
78167;SDS011;67410;42.698;23.378;2023-02-18T07:14:30;95.10;;;41.80;;
78167;SDS011;67410;42.698;23.378;2023-02-18T07:16:56;76.15;;;39.15;;
78167;SDS011;67410;42.698;23.378;2023-02-18T07:19:23;83.78;;;39.95;;
78167;SDS011;67410;42.698;23.378;2023-02-18T07:21:49;90.25;;;43.58;;
78167;SDS011;67410;42.698;23.378;2023-02-18T07:24:15;106.22;;;46.10;;
78167;SDS011;67410;42.698;23.378;2023-02-18T07:26:42;88.75;;;42.65;;
78167;SDS011;67410;42.698;23.378;2023-02-18T07:29:08;115.22;;;55.50;;
78167;SDS011;67410;42.698;23.378;2023-02-18T07:31:35;127.88;;;61.67;;
78167;SDS011;67410;42.698;23.378;2023-02-18T07:34:03;104.72;;;53.22;;
78167;SDS011;67410;42.698;23.378;2023-02-18T07:36:29;77.95;;;33.15;;
78167;SDS011;67410;42.698;23.378;2023-02-18T07:38:55;63.97;;;29.85;;
78167;SDS011;67410;42.698;23.378;2023-02-18T07:41:21;67.70;;;31.40;;
78167;SDS011;67410;42.698;23.378;2023-02-18T07:43:50;59.13;;;28.33;;
78167;SDS011;67410;42.698;23.378;2023-02-18T07:46:16;55.50;;;27.73;;
78167;SDS011;67410;42.698;23.378;2023-02-18T07:48:42;55.65;;;26.38;;
78167;SDS011;67410;42.698;23.378;2023-02-18T07:51:09;58.08;;;26.40;;
78167;SDS011;67410;42.698;23.378;2023-02-18T07:53:36;80.28;;;37.60;;
78167;SDS011;67410;42.698;23.378;2023-02-18T07:56:03;72.25;;;29.52;;
78167;SDS011;67410;42.698;23.378;2023-02-18T07:58:31;57.90;;;28.35;;
78167;SDS011;67410;42.698;23.378;2023-02-18T08:00:59;51.22;;;26.90;;
78167;SDS011;67410;42.698;23.378;2023-02-18T08:03:26;54.72;;;26.60;;
78167;SDS011;67410;42.698;23.378;2023-02-18T08:05:54;49.75;;;23.08;;
78167;SDS011;67410;42.698;23.378;2023-02-18T08:08:22;38.45;;;20.42;;
78167;SDS011;67410;42.698;23.378;2023-02-18T08:10:50;36.33;;;18.50;;
78167;SDS011;67410;42.698;23.378;2023-02-18T08:13:17;51.08;;;26.10;;
78167;SDS011;67410;42.698;23.378;2023-02-18T08:15:43;40.33;;;19.00;;
78167;SDS011;67410;42.698;23.378;2023-02-18T08:18:14;30.73;;;15.40;;
78167;SDS011;67410;42.698;23.378;2023-02-18T08:20:46;29.95;;;14.32;;
78167;SDS011;67410;42.698;23.378;2023-02-18T08:23:13;28.90;;;14.70;;
78167;SDS011;67410;42.698;23.378;2023-02-18T08:25:44;26.65;;;13.18;;
78167;SDS011;67410;42.698;23.378;2023-02-18T08:28:12;29.20;;;14.98;;
78167;SDS011;67410;42.698;23.378;2023-02-18T08:30:42;48.90;;;22.40;;
78167;SDS011;67410;42.698;23.378;2023-02-18T08:33:13;28.52;;;13.93;;
78167;SDS011;67410;42.698;23.378;2023-02-18T08:35:39;32.42;;;13.45;;
78167;SDS011;67410;42.698;23.378;2023-02-18T08:38:05;28.05;;;12.50;;
78167;SDS011;67410;42.698;23.378;2023-02-18T08:40:31;31.13;;;13.60;;
78167;SDS011;67410;42.698;23.378;2023-02-18T08:42:58;32.22;;;13.57;;
78167;SDS011;67410;42.698;23.378;2023-02-18T08:45:24;30.73;;;13.77;;
78167;SDS011;67410;42.698;23.378;2023-02-18T08:47:50;31.45;;;14.07;;
78167;SDS011;67410;42.698;23.378;2023-02-18T08:50:16;32.15;;;15.10;;
78167;SDS011;67410;42.698;23.378;2023-02-18T08:52:45;42.10;;;18.40;;
78167;SDS011;67410;42.698;23.378;2023-02-18T08:55:12;36.67;;;16.85;;
78167;SDS011;67410;42.698;23.378;2023-02-18T08:57:38;42.28;;;17.83;;
78167;SDS011;67410;42.698;23.378;2023-02-18T09:00:05;34.88;;;17.35;;
78167;SDS011;67410;42.698;23.378;2023-02-18T09:02:31;38.85;;;16.40;;
78167;SDS011;67410;42.698;23.378;2023-02-18T09:04:57;37.72;;;17.60;;
78167;SDS011;67410;42.698;23.378;2023-02-18T09:07:23;36.40;;;17.77;;
78167;SDS011;67410;42.698;23.378;2023-02-18T09:09:49;41.50;;;19.08;;
78167;SDS011;67410;42.698;23.378;2023-02-18T09:12:15;54.42;;;22.13;;
78167;SDS011;67410;42.698;23.378;2023-02-18T09:14:42;40.85;;;18.60;;
78167;SDS011;67410;42.698;23.378;2023-02-18T09:17:08;30.80;;;15.68;;
78167;SDS011;67410;42.698;23.378;2023-02-18T09:19:34;47.38;;;17.73;;
78167;SDS011;67410;42.698;23.378;2023-02-18T09:22:00;42.13;;;19.63;;
78167;SDS011;67410;42.698;23.378;2023-02-18T09:24:27;38.75;;;19.10;;
78167;SDS011;67410;42.698;23.378;2023-02-18T09:26:53;33.85;;;14.75;;
78167;SDS011;67410;42.698;23.378;2023-02-18T09:29:20;32.97;;;15.40;;
78167;SDS011;67410;42.698;23.378;2023-02-18T09:31:46;30.90;;;14.68;;
78167;SDS011;67410;42.698;23.378;2023-02-18T09:34:12;31.23;;;13.88;;
78167;SDS011;67410;42.698;23.378;2023-02-18T09:36:38;27.48;;;14.40;;
78167;SDS011;67410;42.698;23.378;2023-02-18T09:39:04;25.15;;;12.48;;
78167;SDS011;67410;42.698;23.378;2023-02-18T09:44:25;31.65;;;13.10;;
78167;SDS011;67410;42.698;23.378;2023-02-18T09:46:54;25.25;;;13.80;;
78167;SDS011;67410;42.698;23.378;2023-02-18T09:49:28;25.48;;;12.55;;
78167;SDS011;67410;42.698;23.378;2023-02-18T09:52:08;25.27;;;13.82;;
78167;SDS011;67410;42.698;23.378;2023-02-18T09:54:42;32.60;;;14.27;;
78167;SDS011;67410;42.698;23.378;2023-02-18T09:57:14;26.25;;;13.73;;
78167;SDS011;67410;42.698;23.378;2023-02-18T09:59:47;29.45;;;15.27;;
78167;SDS011;67410;42.698;23.378;2023-02-18T10:02:30;27.50;;;13.60;;
78167;SDS011;67410;42.698;23.378;2023-02-18T10:04:57;28.75;;;14.07;;
78167;SDS011;67410;42.698;23.378;2023-02-18T10:07:27;40.08;;;20.15;;
78167;SDS011;67410;42.698;23.378;2023-02-18T10:09:56;34.55;;;17.92;;
78167;SDS011;67410;42.698;23.378;2023-02-18T10:12:28;38.80;;;16.60;;
78167;SDS011;67410;42.698;23.378;2023-02-18T10:17:24;27.25;;;14.43;;
78167;SDS011;67410;42.698;23.378;2023-02-18T10:19:53;26.88;;;13.88;;
78167;SDS011;67410;42.698;23.378;2023-02-18T10:22:21;32.63;;;13.45;;
78167;SDS011;67410;42.698;23.378;2023-02-18T10:24:53;21.17;;;11.80;;
78167;SDS011;67410;42.698;23.378;2023-02-18T10:27:24;33.47;;;14.63;;
78167;SDS011;67410;42.698;23.378;2023-02-18T10:29:52;39.40;;;17.20;;
78167;SDS011;67410;42.698;23.378;2023-02-18T10:32:26;39.30;;;16.25;;
78167;SDS011;67410;42.698;23.378;2023-02-18T10:43:42;21.35;;;9.82;;
78167;SDS011;67410;42.698;23.378;2023-02-18T10:46:06;11.07;;;5.05;;
78167;SDS011;67410;42.698;23.378;2023-02-18T10:51:35;11.85;;;5.18;;
78167;SDS011;67410;42.698;23.378;2023-02-18T10:54:04;9.65;;;5.40;;
78167;SDS011;67410;42.698;23.378;2023-02-18T10:59:04;19.75;;;6.35;;
78167;SDS011;67410;42.698;23.378;2023-02-18T11:01:34;15.95;;;7.35;;
78167;SDS011;67410;42.698;23.378;2023-02-18T11:04:16;10.73;;;5.88;;
78167;SDS011;67410;42.698;23.378;2023-02-18T11:06:46;10.65;;;5.10;;
78167;SDS011;67410;42.698;23.378;2023-02-18T11:12:13;16.25;;;7.30;;
78167;SDS011;67410;42.698;23.378;2023-02-18T11:14:44;11.32;;;4.88;;
78167;SDS011;67410;42.698;23.378;2023-02-18T11:17:25;12.13;;;5.28;;
78167;SDS011;67410;42.698;23.378;2023-02-18T11:19:57;12.07;;;4.63;;
78167;SDS011;67410;42.698;23.378;2023-02-18T11:22:27;10.45;;;5.32;;
78167;SDS011;67410;42.698;23.378;2023-02-18T11:24:59;12.73;;;5.00;;
78167;SDS011;67410;42.698;23.378;2023-02-18T11:29:58;11.13;;;4.57;;
78167;SDS011;67410;42.698;23.378;2023-02-18T11:32:28;6.07;;;4.07;;
78167;SDS011;67410;42.698;23.378;2023-02-18T11:34:55;13.45;;;4.45;;
78167;SDS011;67410;42.698;23.378;2023-02-18T11:37:21;9.10;;;3.97;;
78167;SDS011;67410;42.698;23.378;2023-02-18T11:39:49;7.53;;;3.80;;
78167;SDS011;67410;42.698;23.378;2023-02-18T11:42:20;13.10;;;5.00;;
78167;SDS011;67410;42.698;23.378;2023-02-18T11:44:53;13.85;;;5.50;;
78167;SDS011;67410;42.698;23.378;2023-02-18T11:47:30;12.20;;;4.70;;
78167;SDS011;67410;42.698;23.378;2023-02-18T11:52:37;14.68;;;6.47;;
78167;SDS011;67410;42.698;23.378;2023-02-18T11:55:16;12.70;;;6.15;;
78167;SDS011;67410;42.698;23.378;2023-02-18T11:57:55;10.55;;;5.50;;
78167;SDS011;67410;42.698;23.378;2023-02-18T12:00:28;43.90;;;19.67;;
78167;SDS011;67410;42.698;23.378;2023-02-18T12:03:28;20.20;;;9.35;;
78167;SDS011;67410;42.698;23.378;2023-02-18T12:05:59;15.65;;;7.38;;
78167;SDS011;67410;42.698;23.378;2023-02-18T12:08:29;13.18;;;6.65;;
78167;SDS011;67410;42.698;23.378;2023-02-18T12:11:45;17.60;;;8.82;;
78167;SDS011;67410;42.698;23.378;2023-02-18T12:13:57;13.55;;;8.05;;
78167;SDS011;67410;42.698;23.378;2023-02-18T12:21:50;10.60;;;5.63;;
78167;SDS011;67410;42.698;23.378;2023-02-18T12:49:31;12.95;;;5.47;;
78167;SDS011;67410;42.698;23.378;2023-02-18T13:05:49;14.23;;;5.20;;
78167;SDS011;67410;42.698;23.378;2023-02-18T13:21:46;10.05;;;4.75;;
78167;SDS011;67410;42.698;23.378;2023-02-18T13:24:35;11.18;;;5.18;;
78167;SDS011;67410;42.698;23.378;2023-02-18T13:32:38;8.82;;;4.80;;
78167;SDS011;67410;42.698;23.378;2023-02-18T13:35:36;11.90;;;6.00;;
78167;SDS011;67410;42.698;23.378;2023-02-18T13:40:56;40.83;;;14.25;;
78167;SDS011;67410;42.698;23.378;2023-02-18T13:46:16;11.50;;;5.70;;
78167;SDS011;67410;42.698;23.378;2023-02-18T13:51:10;9.50;;;4.68;;
78167;SDS011;67410;42.698;23.378;2023-02-18T13:53:43;14.20;;;5.75;;
78167;SDS011;67410;42.698;23.378;2023-02-18T13:56:20;11.68;;;6.15;;
78167;SDS011;67410;42.698;23.378;2023-02-18T13:59:09;8.88;;;4.30;;
78167;SDS011;67410;42.698;23.378;2023-02-18T14:01:53;10.82;;;4.07;;
78167;SDS011;67410;42.698;23.378;2023-02-18T14:07:25;10.80;;;4.40;;
78167;SDS011;67410;42.698;23.378;2023-02-18T14:09:58;11.43;;;4.72;;
78167;SDS011;67410;42.698;23.378;2023-02-18T14:12:34;9.18;;;4.60;;
78167;SDS011;67410;42.698;23.378;2023-02-18T14:22:46;10.50;;;5.60;;
78167;SDS011;67410;42.698;23.378;2023-02-18T14:27:45;7.95;;;5.00;;
78167;SDS011;67410;42.698;23.378;2023-02-18T14:32:48;11.68;;;4.95;;
78167;SDS011;67410;42.698;23.378;2023-02-18T14:37:55;13.02;;;5.68;;
78167;SDS011;67410;42.698;23.378;2023-02-18T14:47:13;9.45;;;5.10;;
78167;SDS011;67410;42.698;23.378;2023-02-18T14:49:48;9.23;;;4.45;;
78167;SDS011;67410;42.698;23.378;2023-02-18T14:52:33;13.15;;;4.63;;
78167;SDS011;67410;42.698;23.378;2023-02-18T14:55:00;30.45;;;4.35;;
78167;SDS011;67410;42.698;23.378;2023-02-18T14:57:32;10.25;;;4.72;;
78167;SDS011;67410;42.698;23.378;2023-02-18T15:02:34;9.82;;;4.10;;
78167;SDS011;67410;42.698;23.378;2023-02-18T15:08:05;14.70;;;4.55;;
78167;SDS011;67410;42.698;23.378;2023-02-18T15:10:40;13.15;;;4.30;;
78167;SDS011;67410;42.698;23.378;2023-02-18T15:13:22;10.25;;;4.70;;
78167;SDS011;67410;42.698;23.378;2023-02-18T15:15:56;10.68;;;5.32;;
78167;SDS011;67410;42.698;23.378;2023-02-18T15:18:30;12.32;;;5.25;;
78167;SDS011;67410;42.698;23.378;2023-02-18T15:21:01;8.63;;;4.30;;
78167;SDS011;67410;42.698;23.378;2023-02-18T15:23:34;11.23;;;5.07;;
78167;SDS011;67410;42.698;23.378;2023-02-18T15:26:02;12.18;;;5.32;;
78167;SDS011;67410;42.698;23.378;2023-02-18T15:28:31;13.13;;;5.93;;
78167;SDS011;67410;42.698;23.378;2023-02-18T15:30:59;9.82;;;4.88;;
78167;SDS011;67410;42.698;23.378;2023-02-18T15:33:28;12.23;;;5.80;;
78167;SDS011;67410;42.698;23.378;2023-02-18T15:36:02;11.65;;;6.72;;
78167;SDS011;67410;42.698;23.378;2023-02-18T15:38:30;14.43;;;7.57;;
78167;SDS011;67410;42.698;23.378;2023-02-18T15:40:56;20.38;;;9.88;;
78167;SDS011;67410;42.698;23.378;2023-02-18T15:43:25;21.65;;;11.40;;
78167;SDS011;67410;42.698;23.378;2023-02-18T15:45:53;17.50;;;8.60;;
78167;SDS011;67410;42.698;23.378;2023-02-18T15:51:02;20.73;;;8.90;;
78167;SDS011;67410;42.698;23.378;2023-02-18T15:53:30;19.90;;;9.40;;
78167;SDS011;67410;42.698;23.378;2023-02-18T15:56:04;20.35;;;8.60;;
78167;SDS011;67410;42.698;23.378;2023-02-18T15:58:34;20.75;;;8.43;;
78167;SDS011;67410;42.698;23.378;2023-02-18T16:01:02;18.17;;;9.50;;
78167;SDS011;67410;42.698;23.378;2023-02-18T16:03:32;125.28;;;57.15;;
78167;SDS011;67410;42.698;23.378;2023-02-18T16:06:16;23.33;;;11.20;;
78167;SDS011;67410;42.698;23.378;2023-02-18T16:08:59;20.40;;;8.70;;
78167;SDS011;67410;42.698;23.378;2023-02-18T16:11:29;26.58;;;9.82;;
78167;SDS011;67410;42.698;23.378;2023-02-18T16:13:59;23.27;;;8.65;;
78167;SDS011;67410;42.698;23.378;2023-02-18T16:16:33;21.83;;;7.15;;
78167;SDS011;67410;42.698;23.378;2023-02-18T16:19:01;17.92;;;7.40;;
78167;SDS011;67410;42.698;23.378;2023-02-18T16:24:00;19.27;;;8.70;;
78167;SDS011;67410;42.698;23.378;2023-02-18T16:29:13;29.25;;;12.55;;
78167;SDS011;67410;42.698;23.378;2023-02-18T16:31:49;33.40;;;14.32;;
78167;SDS011;67410;42.698;23.378;2023-02-18T16:34:16;27.58;;;12.88;;
78167;SDS011;67410;42.698;23.378;2023-02-18T16:36:42;32.30;;;11.93;;
78167;SDS011;67410;42.698;23.378;2023-02-18T16:39:31;19.38;;;7.40;;
78167;SDS011;67410;42.698;23.378;2023-02-18T16:41:59;19.38;;;7.30;;
78167;SDS011;67410;42.698;23.378;2023-02-18T16:44:26;17.48;;;8.15;;
78167;SDS011;67410;42.698;23.378;2023-02-18T16:46:52;22.02;;;8.63;;
78167;SDS011;67410;42.698;23.378;2023-02-18T16:49:18;20.98;;;7.63;;
78167;SDS011;67410;42.698;23.378;2023-02-18T16:51:45;17.83;;;8.45;;
78167;SDS011;67410;42.698;23.378;2023-02-18T16:54:13;62.03;;;25.00;;
78167;SDS011;67410;42.698;23.378;2023-02-18T16:56:39;43.15;;;19.27;;
78167;SDS011;67410;42.698;23.378;2023-02-18T16:59:06;36.30;;;17.58;;
78167;SDS011;67410;42.698;23.378;2023-02-18T17:01:33;43.92;;;19.90;;
78167;SDS011;67410;42.698;23.378;2023-02-18T17:04:06;40.03;;;18.73;;
78167;SDS011;67410;42.698;23.378;2023-02-18T17:06:44;44.55;;;17.75;;
78167;SDS011;67410;42.698;23.378;2023-02-18T17:11:46;55.33;;;23.38;;
78167;SDS011;67410;42.698;23.378;2023-02-18T17:14:15;53.20;;;24.25;;
78167;SDS011;67410;42.698;23.378;2023-02-18T17:16:43;44.38;;;20.13;;
78167;SDS011;67410;42.698;23.378;2023-02-18T17:19:13;36.17;;;17.38;;
78167;SDS011;67410;42.698;23.378;2023-02-18T17:21:41;35.47;;;16.08;;
78167;SDS011;67410;42.698;23.378;2023-02-18T17:24:14;39.45;;;18.83;;
78167;SDS011;67410;42.698;23.378;2023-02-18T17:26:42;38.85;;;18.02;;
78167;SDS011;67410;42.698;23.378;2023-02-18T17:29:09;38.78;;;18.75;;
78167;SDS011;67410;42.698;23.378;2023-02-18T17:31:36;39.03;;;18.70;;